Time;durP1;ratioP1;P1;durP2;ratioP2;P2;SDS_P1;SDS_P2;PMS_P1;PMS_P2;Temp;Humidity;BMP_temperature;BMP_pressure;BME280_temperature;BME280_humidity;BME280_pressure;Samples;Min_cycle;Max_cycle;Signal;HPM_P1;HPM_P2
2024/01/29 00:00:27;;;;;;;5.20;3.17;;;;;;;;;;4976055;28;20054;-72
2024/01/29 00:02:53;;;;;;;6.25;2.78;;;;;;;;;;4979267;28;20501;-71
2024/01/29 00:05:20;;;;;;;5.97;3.53;;;;;;;;;;4978246;28;20050;-72
2024/01/29 00:07:46;;;;;;;5.60;3.33;;;;;;;;;;4980442;28;20046;-70
2024/01/29 00:10:12;;;;;;;5.72;3.58;;;;;;;;;;4984248;28;20451;-72
2024/01/29 00:12:38;;;;;;;8.60;3.95;;;;;;;;;;4976794;28;20047;-72
2024/01/29 00:15:05;;;;;;;6.32;3.65;;;6.50;99.90;;;;;;4982499;28;20082;-71
2024/01/29 00:17:31;;;;;;;5.32;3.25;;;;;;;;;;4976424;28;20046;-71
2024/01/29 00:19:57;;;;;;;6.82;4.60;;;;;;;;;;4982476;28;20042;-72
2024/01/29 00:22:23;;;;;;;6.82;3.55;;;;;;;;;;4979801;28;20046;-71
2024/01/29 00:24:49;;;;;;;5.53;3.50;;;;;;;;;;4983727;28;20050;-71
2024/01/29 00:27:15;;;;;;;6.35;3.75;;;;;;;;;;4982460;28;20046;-72
2024/01/29 00:29:41;;;;;;;7.70;4.03;;;;;;;;;;4979530;28;20042;-70
2024/01/29 00:32:07;;;;;;;8.52;3.85;;;;;;;;;;4982012;28;20046;-71
2024/01/29 00:34:33;;;;;;;6.78;3.40;;;;;;;;;;4977630;28;20098;-71
2024/01/29 00:36:59;;;;;;;8.85;4.05;;;;;;;;;;4982534;28;20054;-72
2024/01/29 00:39:25;;;;;;;6.22;3.88;;;;;;;;;;4976705;28;20042;-71
2024/01/29 00:41:51;;;;;;;6.40;3.45;;;;;;;;;;4984455;28;20069;-70
2024/01/29 00:44:17;;;;;;;8.23;3.85;;;;;;;;;;4980494;28;20497;-71
2024/01/29 00:46:43;;;;;;;6.05;3.30;;;;;;;;;;4982817;28;20834;-72
2024/01/29 00:49:09;;;;;;;6.28;3.85;;;;;;;;;;4978263;28;20046;-72
2024/01/29 00:51:35;;;;;;;5.28;3.70;;;6.40;99.90;;;;;;4976181;28;20043;-71
2024/01/29 00:54:02;;;;;;;5.78;3.20;;;;;;;;;;4979148;28;20053;-71
2024/01/29 00:56:28;;;;;;;6.38;3.72;;;;;;;;;;4985262;28;20065;-72
2024/01/29 00:58:54;;;;;;;4.55;3.25;;;;;;;;;;4985712;28;20109;-72
2024/01/29 01:01:20;;;;;;;7.15;3.60;;;;;;;;;;4982232;28;20077;-72
2024/01/29 01:03:46;;;;;;;7.28;3.85;;;6.20;99.90;;;;;;4981229;28;20064;-72
2024/01/29 01:06:12;;;;;;;10.32;4.18;;;;;;;;;;4982110;28;20840;-70
2024/01/29 01:08:38;;;;;;;4.07;3.45;;;;;;;;;;4980187;28;20054;-71
2024/01/29 01:11:04;;;;;;;5.75;3.78;;;;;;;;;;4981025;28;20061;-72
2024/01/29 01:13:30;;;;;;;5.68;3.78;;;;;;;;;;4976851;28;20077;-72
2024/01/29 01:15:56;;;;;;;6.15;3.42;;;;;;;;;;4978899;28;20042;-72
2024/01/29 01:18:22;;;;;;;6.85;3.47;;;;;;;;;;4976453;28;20888;-72
2024/01/29 01:20:48;;;;;;;7.97;3.70;;;;;;;;;;4981768;28;20050;-71
2024/01/29 01:23:14;;;;;;;7.22;3.92;;;;;;;;;;4978940;28;20038;-71
2024/01/29 01:25:40;;;;;;;5.78;3.80;;;;;;;;;;4976087;28;20057;-70
2024/01/29 01:28:07;;;;;;;7.72;3.63;;;;;;;;;;4984137;28;20490;-72
2024/01/29 01:30:33;;;;;;;7.60;3.65;;;;;;;;;;4982834;28;20054;-71
2024/01/29 01:32:59;;;;;;;8.88;3.83;;;;;;;;;;4976773;28;20054;-71
2024/01/29 01:35:25;;;;;;;7.43;4.40;;;;;;;;;;4974271;28;20058;-72
2024/01/29 01:37:51;;;;;;;8.50;3.95;;;;;;;;;;4973832;28;20054;-72
2024/01/29 01:40:17;;;;;;;6.00;3.60;;;;;;;;;;4980906;28;20034;-72
2024/01/29 01:42:44;;;;;;;7.00;3.72;;;;;;;;;;4980529;28;20058;-72
2024/01/29 01:45:10;;;;;;;8.20;3.65;;;;;;;;;;4978950;28;20051;-72
2024/01/29 01:47:36;;;;;;;6.63;3.67;;;;;;;;;;4981383;28;20072;-72
2024/01/29 01:50:04;;;;;;;6.32;4.15;;;;;;;;;;4980583;28;20109;-72
2024/01/29 01:52:31;;;;;;;7.40;3.90;;;;;;;;;;4981348;28;20492;-72
2024/01/29 01:54:57;;;;;;;7.38;4.22;;;;;;;;;;4975184;28;20070;-72
2024/01/29 01:57:23;;;;;;;6.47;4.05;;;;;;;;;;4981388;28;20046;-71
2024/01/29 01:59:50;;;;;;;4.72;3.20;;;;;;;;;;4979472;28;20034;-72
2024/01/29 02:02:16;;;;;;;6.72;4.10;;;;;;;;;;4981893;28;20085;-71
2024/01/29 02:04:42;;;;;;;6.90;3.83;;;;;;;;;;4976344;28;20055;-72
2024/01/29 02:07:08;;;;;;;4.38;3.55;;;;;;;;;;4981552;28;20050;-72
2024/01/29 02:09:34;;;;;;;6.13;3.45;;;;;;;;;;4979221;28;20050;-70
2024/01/29 02:12:01;;;;;;;6.95;3.88;;;;;;;;;;4982969;28;20656;-71
2024/01/29 02:14:27;;;;;;;5.75;3.75;;;;;;;;;;4979651;28;20045;-72
2024/01/29 02:16:53;;;;;;;7.32;4.22;;;;;;;;;;4982107;28;20042;-72
2024/01/29 02:19:19;;;;;;;5.32;3.97;;;;;;;;;;4977334;28;20408;-71
2024/01/29 02:21:45;;;;;;;6.22;3.80;;;;;;;;;;4982546;28;20407;-72
2024/01/29 02:24:11;;;;;;;7.40;4.55;;;;;;;;;;4978611;28;20046;-72
2024/01/29 02:26:37;;;;;;;7.03;4.07;;;;;;;;;;4979115;28;20072;-71
2024/01/29 02:29:03;;;;;;;5.43;3.92;;;;;;;;;;4980347;28;20057;-72
2024/01/29 02:31:29;;;;;;;7.63;3.97;;;;;;;;;;4980406;28;20050;-72
2024/01/29 02:33:55;;;;;;;4.72;3.65;;;;;;;;;;4977566;28;20741;-71
2024/01/29 02:36:21;;;;;;;7.75;4.20;;;;;;;;;;4979278;28;20129;-72
2024/01/29 02:38:47;;;;;;;6.78;4.20;;;;;;;;;;4982061;28;20048;-72
2024/01/29 02:41:13;;;;;;;7.43;3.95;;;;;;;;;;4979536;28;20050;-72
2024/01/29 02:43:41;;;;;;;5.82;3.85;;;;;;;;;;4978793;28;20057;-72
2024/01/29 02:46:07;;;;;;;7.78;4.30;;;5.60;99.90;;;;;;4976671;28;20105;-72
2024/01/29 02:48:33;;;;;;;5.82;4.00;;;;;;;;;;4977031;28;20412;-72
2024/01/29 02:51:00;;;;;;;6.65;4.18;;;;;;;;;;4980125;28;20899;-72
2024/01/29 02:53:26;;;;;;;6.65;3.92;;;;;;;;;;4974599;28;20047;-72
2024/01/29 02:55:52;;;;;;;8.85;4.43;;;;;;;;;;4979833;28;20772;-72
2024/01/29 02:58:18;;;;;;;6.78;3.80;;;;;;;;;;4979688;28;20050;-72
2024/01/29 03:00:44;;;;;;;7.05;4.10;;;;;;;;;;4979158;28;20054;-72
2024/01/29 03:03:11;;;;;;;6.95;3.97;;;;;;;;;;4972886;28;20086;-72
2024/01/29 03:05:37;;;;;;;6.45;4.13;;;;;;;;;;4979369;28;20053;-71
2024/01/29 03:08:03;;;;;;;6.85;3.50;;;;;;;;;;4977402;28;20050;-72
2024/01/29 03:10:28;;;;;;;8.35;4.40;;;5.50;99.90;;;;;;4978486;28;20050;-72
2024/01/29 03:12:56;;;;;;;7.03;4.22;;;;;;;;;;4979842;28;20076;-72
2024/01/29 03:15:22;;;;;;;9.30;4.10;;;;;;;;;;4980357;28;20516;-72
2024/01/29 03:17:48;;;;;;;5.47;4.07;;;;;;;;;;4975228;28;20050;-71
2024/01/29 03:20:15;;;;;;;6.72;3.88;;;;;;;;;;4977904;28;20042;-72
2024/01/29 03:22:41;;;;;;;10.75;4.82;;;;;;;;;;4980425;28;20053;-70
2024/01/29 03:25:07;;;;;;;7.47;3.97;;;;;;;;;;4980154;28;20420;-71
2024/01/29 03:27:33;;;;;;;8.05;4.20;;;;;;;;;;4976148;28;20038;-71
2024/01/29 03:29:59;;;;;;;6.60;4.28;;;;;;;;;;4979145;28;20130;-72
2024/01/29 03:32:25;;;;;;;6.85;3.88;;;;;;;;;;4977961;28;20129;-72
2024/01/29 03:34:51;;;;;;;7.22;4.18;;;;;;;;;;4983657;28;20711;-71
2024/01/29 03:37:17;;;;;;;6.32;3.90;;;;;;;;;;4982489;28;20113;-72
2024/01/29 03:39:43;;;;;;;6.82;4.63;;;;;;;;;;4979243;28;20121;-71
2024/01/29 03:42:09;;;;;;;7.93;4.30;;;;;;;;;;4977403;28;20466;-72
2024/01/29 03:44:35;;;;;;;10.10;4.50;;;;;;;;;;4976240;28;20058;-72
2024/01/29 03:47:01;;;;;;;6.72;4.00;;;;;;;;;;4981808;28;20046;-71
2024/01/29 03:49:27;;;;;;;6.93;4.30;;;;;;;;;;4983683;28;20052;-71
2024/01/29 03:51:53;;;;;;;8.02;4.25;;;;;;;;;;4983014;28;20054;-72
2024/01/29 03:54:19;;;;;;;9.32;4.45;;;;;;;;;;4980630;28;20116;-72
2024/01/29 03:56:45;;;;;;;9.02;4.38;;;;;;;;;;4980363;28;20050;-72
2024/01/29 03:59:11;;;;;;;6.53;4.30;;;;;;;;;;4983485;28;20047;-70
2024/01/29 04:01:38;;;;;;;6.63;5.22;;;;;;;;;;4996922;28;20050;-71
2024/01/29 04:04:09;;;;;;;6.75;4.90;;;;;;;;;;4983478;28;20534;-72
2024/01/29 04:06:35;;;;;;;6.90;4.30;;;;;;;;;;4983017;28;20134;-71
2024/01/29 04:09:02;;;;;;;7.10;5.00;;;;;;;;;;4984441;28;20050;-72
2024/01/29 04:11:28;;;;;;;6.18;4.13;;;;;;;;;;4976592;28;20061;-71
2024/01/29 04:13:54;;;;;;;9.27;4.80;;;;;;;;;;4975841;28;20393;-72
2024/01/29 04:16:20;;;;;;;6.85;4.28;;;;;;;;;;4970466;28;20054;-72
2024/01/29 04:18:46;;;;;;;8.40;4.05;;;;;;;;;;4979564;28;20046;-71
2024/01/29 04:21:13;;;;;;;6.55;3.83;;;;;;;;;;4974963;28;20049;-71
2024/01/29 04:23:39;;;;;;;7.75;4.80;;;;;;;;;;4976047;28;20050;-71
2024/01/29 04:26:05;;;;;;;8.10;5.25;;;;;;;;;;4984779;28;20566;-72
2024/01/29 04:28:31;;;;;;;9.48;5.53;;;;;;;;;;4981926;28;20049;-72
2024/01/29 04:30:57;;;;;;;9.18;4.40;;;;;;;;;;4982975;28;20050;-71
2024/01/29 04:33:23;;;;;;;9.50;4.75;;;;;;;;;;4981881;28;20125;-72
2024/01/29 04:35:49;;;;;;;6.20;4.70;;;;;;;;;;4978302;28;20086;-70
2024/01/29 04:38:15;;;;;;;9.73;5.13;;;;;;;;;;4978906;28;20053;-72
2024/01/29 04:40:42;;;;;;;8.40;4.10;;;;;;;;;;4978211;28;20050;-72
2024/01/29 04:43:08;;;;;;;6.30;4.65;;;;;;;;;;4974662;28;20054;-70
2024/01/29 04:45:34;;;;;;;9.27;5.55;;;;;;;;;;4980630;28;20132;-72
2024/01/29 04:48:00;;;;;;;7.05;4.35;;;;;;;;;;4979778;28;20081;-70
2024/01/29 04:50:26;;;;;;;7.85;3.90;;;;;;;;;;4984282;28;20084;-72
2024/01/29 04:52:52;;;;;;;7.22;5.18;;;;;;;;;;4981853;28;20046;-72
2024/01/29 04:55:18;;;;;;;7.88;5.28;;;;;;;;;;4982616;28;20121;-70
2024/01/29 04:57:44;;;;;;;6.70;4.78;;;;;;;;;;4974341;28;20042;-72
2024/01/29 05:00:10;;;;;;;6.90;4.60;;;;;;;;;;4982030;28;20116;-71
2024/01/29 05:02:36;;;;;;;9.10;4.85;;;;;;;;;;4980284;28;20752;-71
2024/01/29 05:05:03;;;;;;;10.13;4.57;;;;;;;;;;4981936;28;20043;-72
2024/01/29 05:07:29;;;;;;;9.00;4.88;;;;;;;;;;4976928;28;20042;-72
2024/01/29 05:09:55;;;;;;;7.40;5.05;;;;;;;;;;4977680;28;20053;-72
2024/01/29 05:12:21;;;;;;;7.45;5.10;;;;;;;;;;4980845;28;20539;-72
2024/01/29 05:14:47;;;;;;;9.93;5.05;;;;;;;;;;4981758;28;20408;-71
2024/01/29 05:17:13;;;;;;;10.95;5.07;;;;;;;;;;4979843;28;20034;-69
2024/01/29 05:19:43;;;;;;;8.68;4.70;;;;;;;;;;4981072;28;20053;-70
2024/01/29 05:22:10;;;;;;;8.93;4.82;;;;;;;;;;4982836;28;20053;-70
2024/01/29 05:24:37;;;;;;;7.55;5.15;;;;;;;;;;4981024;28;20061;-72
2024/01/29 05:27:03;;;;;;;11.15;5.57;;;;;;;;;;4984022;28;20501;-72
2024/01/29 05:29:29;;;;;;;8.73;4.68;;;;;;;;;;4978553;28;20042;-70
2024/01/29 05:31:55;;;;;;;10.55;5.00;;;;;;;;;;4982326;28;20493;-70
2024/01/29 05:34:21;;;;;;;8.13;5.07;;;;;;;;;;4980875;28;20121;-72
2024/01/29 05:36:47;;;;;;;10.60;5.22;;;;;;;;;;4982814;28;20099;-72
2024/01/29 05:39:12;;;;;;;7.32;5.05;;;4.40;99.90;;;;;;4981849;28;20046;-72
2024/01/29 05:41:38;;;;;;;8.70;4.60;;;;;;;;;;4982904;28;20042;-71
2024/01/29 05:44:05;;;;;;;7.70;4.95;;;;;;;;;;4976216;28;20050;-71
2024/01/29 05:46:31;;;;;;;6.97;4.70;;;;;;;;;;4982807;28;20054;-71
2024/01/29 05:48:57;;;;;;;9.57;5.22;;;;;;;;;;4981718;28;20093;-72
2024/01/29 05:51:23;;;;;;;8.82;4.88;;;;;;;;;;4983015;28;20121;-71
2024/01/29 05:53:49;;;;;;;6.88;5.28;;;;;;;;;;4981835;28;20054;-72
2024/01/29 05:56:15;;;;;;;11.18;5.47;;;;;;;;;;4983666;28;20050;-71
2024/01/29 05:58:44;;;;;;;9.18;5.75;;;;;;;;;;4980381;28;20416;-71
2024/01/29 06:01:11;;;;;;;6.93;4.75;;;;;;;;;;4982870;28;20544;-71
2024/01/29 06:03:37;;;;;;;9.07;5.38;;;;;;;;;;4981749;28;20081;-72
2024/01/29 06:06:03;;;;;;;6.35;5.63;;;;;;;;;;4982622;28;20181;-72
2024/01/29 06:08:29;;;;;;;13.68;5.70;;;;;;;;;;4980507;28;20941;-71
2024/01/29 06:10:55;;;;;;;7.50;4.88;;;;;;;;;;4980498;28;20062;-71
2024/01/29 06:13:23;;;;;;;7.43;4.65;;;;;;;;;;4974216;28;20051;-72
2024/01/29 06:15:50;;;;;;;9.13;5.28;;;;;;;;;;4973280;28;20050;-72
2024/01/29 06:18:16;;;;;;;7.47;4.95;;;;;;;;;;4975091;28;21290;-71
2024/01/29 06:20:41;;;;;;;9.82;4.65;;;4.80;99.90;;;;;;4977458;28;20074;-72
2024/01/29 06:23:09;;;;;;;8.20;4.95;;;;;;;;;;4984268;28;20126;-72
2024/01/29 06:25:35;;;;;;;10.02;5.40;;;;;;;;;;4982735;28;20054;-71
2024/01/29 06:28:01;;;;;;;9.32;5.45;;;;;;;;;;4982711;28;20140;-71
2024/01/29 06:30:27;;;;;;;11.93;4.80;;;4.90;99.90;;;;;;4981847;28;20460;-72
2024/01/29 06:32:53;;;;;;;7.63;5.53;;;;;;;;;;4976775;28;20078;-71
2024/01/29 06:35:18;;;;;;;7.95;4.80;;;5.00;99.90;;;;;;4982542;28;20122;-72
2024/01/29 06:37:44;;;;;;;9.50;5.57;;;;;;;;;;4979477;28;20388;-72
2024/01/29 06:40:11;;;;;;;8.25;5.47;;;;;;;;;;4972792;28;20307;-72
2024/01/29 06:42:37;;;;;;;8.88;5.20;;;;;;;;;;4990478;28;20063;-72
2024/01/29 06:45:04;;;;;;;9.40;5.65;;;;;;;;;;4972104;28;20090;-72
2024/01/29 06:47:30;;;;;;;7.90;5.28;;;;;;;;;;4975065;28;20054;-72
2024/01/29 06:49:58;;;;;;;8.45;5.28;;;;;;;;;;4978728;28;20124;-71
2024/01/29 06:52:25;;;;;;;10.95;6.10;;;;;;;;;;4980191;28;20046;-73
2024/01/29 06:54:51;;;;;;;10.40;6.15;;;;;;;;;;4981790;28;20062;-73
2024/01/29 06:57:17;;;;;;;7.95;5.40;;;4.90;99.90;;;;;;4982620;28;20523;-73
2024/01/29 06:59:43;;;;;;;8.25;5.80;;;;;;;;;;4979455;28;20039;-73
2024/01/29 07:02:09;;;;;;;9.18;5.53;;;;;;;;;;4978994;28;20057;-73
2024/01/29 07:04:35;;;;;;;8.55;5.45;;;;;;;;;;4979449;28;20042;-73
2024/01/29 07:07:01;;;;;;;7.20;5.90;;;;;;;;;;4982096;28;20564;-71
2024/01/29 07:09:27;;;;;;;11.82;5.53;;;;;;;;;;4994298;28;20497;-73
2024/01/29 07:11:53;;;;;;;9.52;5.70;;;;;;;;;;4976040;28;20045;-73
2024/01/29 07:14:19;;;;;;;9.98;6.13;;;;;;;;;;4986096;28;20420;-73
2024/01/29 07:16:46;;;;;;;7.88;6.28;;;;;;;;;;4986006;28;20058;-74
2024/01/29 07:19:13;;;;;;;9.20;5.32;;;;;;;;;;4986589;28;20783;-71
2024/01/29 07:21:41;;;;;;;9.50;5.93;;;;;;;;;;4985887;28;20097;-73
2024/01/29 07:24:07;;;;;;;10.32;7.22;;;;;;;;;;4987110;28;20104;-72
2024/01/29 07:26:33;;;;;;;14.10;6.63;;;5.10;99.90;;;;;;5003409;28;20412;-74
2024/01/29 07:28:59;;;;;;;9.25;5.45;;;;;;;;;;4986078;28;20057;-73
2024/01/29 07:31:24;;;;;;;9.25;5.72;;;5.10;99.90;;;;;;4980092;28;20042;-73
2024/01/29 07:33:50;;;;;;;8.55;6.30;;;;;;;;;;4985810;28;20042;-73
2024/01/29 07:36:17;;;;;;;9.13;6.15;;;;;;;;;;4990181;28;20050;-74
2024/01/29 07:38:43;;;;;;;8.73;6.05;;;;;;;;;;4985294;28;20050;-72
2024/01/29 07:41:09;;;;;;;11.15;6.28;;;;;;;;;;4985428;28;20053;-73
2024/01/29 07:43:35;;;;;;;7.72;5.80;;;;;;;;;;4986066;28;20050;-73
2024/01/29 07:46:01;;;;;;;10.40;6.10;;;;;;;;;;4985213;28;20519;-73
2024/01/29 07:48:27;;;;;;;7.57;5.75;;;;;;;;;;4986106;28;20053;-73
2024/01/29 07:50:53;;;;;;;10.80;6.10;;;;;;;;;;4984846;28;20042;-72
2024/01/29 07:53:18;;;;;;;9.40;6.35;;;5.20;99.90;;;;;;4985372;28;20500;-73
2024/01/29 07:55:44;;;;;;;8.93;6.43;;;;;;;;;;4984531;28;20132;-72
2024/01/29 07:58:10;;;;;;;9.13;5.95;;;5.20;99.90;;;;;;4986322;28;20092;-73
2024/01/29 08:00:36;;;;;;;9.70;6.38;;;;;;;;;;4999244;28;20711;-73
2024/01/29 08:03:02;;;;;;;10.55;6.35;;;;;;;;;;4986378;28;20053;-73
2024/01/29 08:05:28;;;;;;;10.50;5.97;;;;;;;;;;4985186;28;21594;-73
2024/01/29 08:07:54;;;;;;;10.25;6.35;;;;;;;;;;4984696;28;20045;-73
2024/01/29 08:10:20;;;;;;;9.90;6.03;;;;;;;;;;4985081;28;20054;-73
2024/01/29 08:12:46;;;;;;;10.88;5.97;;;;;;;;;;4983887;28;20400;-74
2024/01/29 08:15:12;;;;;;;9.75;6.63;;;;;;;;;;4975493;28;20050;-73
2024/01/29 08:17:38;;;;;;;9.93;6.20;;;;;;;;;;4983937;28;20132;-73
2024/01/29 08:20:05;;;;;;;9.75;6.20;;;;;;;;;;4985978;28;20046;-73
2024/01/29 08:22:31;;;;;;;10.00;6.68;;;;;;;;;;4985648;28;20445;-73
2024/01/29 08:24:57;;;;;;;9.50;6.63;;;;;;;;;;4985990;28;20046;-73
2024/01/29 08:27:23;;;;;;;12.18;7.22;;;;;;;;;;4982453;28;20085;-73
2024/01/29 08:29:49;;;;;;;9.25;6.22;;;;;;;;;;4981820;28;20741;-72
2024/01/29 08:32:15;;;;;;;8.85;6.38;;;;;;;;;;4983327;28;20051;-73
2024/01/29 08:34:41;;;;;;;9.40;6.47;;;;;;;;;;4983753;28;20159;-72
2024/01/29 08:37:07;;;;;;;8.95;6.45;;;;;;;;;;4979757;28;20046;-73
2024/01/29 08:39:33;;;;;;;8.57;5.47;;;;;;;;;;4979260;28;20068;-74
2024/01/29 08:41:59;;;;;;;7.75;5.57;;;;;;;;;;4980984;28;20065;-72
2024/01/29 08:44:25;;;;;;;8.93;6.20;;;;;;;;;;4982652;28;20046;-73
2024/01/29 08:46:51;;;;;;;10.82;6.60;;;;;;;;;;4972953;28;20512;-73
2024/01/29 08:49:17;;;;;;;10.23;6.90;;;;;;;;;;4984490;28;20049;-73
2024/01/29 08:51:45;;;;;;;11.45;6.57;;;;;;;;;;4982337;28;20121;-73
2024/01/29 08:54:11;;;;;;;10.43;6.88;;;;;;;;;;4983792;28;20122;-73
2024/01/29 08:56:39;;;;;;;9.52;6.82;;;;;;;;;;4983812;28;20049;-73
2024/01/29 08:59:05;;;;;;;9.07;6.72;;;;;;;;;;4984096;28;20053;-73
2024/01/29 09:01:31;;;;;;;10.95;7.00;;;;;;;;;;4983775;28;20038;-73
2024/01/29 09:03:56;;;;;;;10.27;6.70;;;6.70;99.90;;;;;;4978101;28;20042;-73
2024/01/29 09:06:22;;;;;;;9.30;6.40;;;;;;;;;;4982955;28;20955;-73
2024/01/29 09:08:48;;;;;;;11.00;7.03;;;;;;;;;;4981742;28;20054;-72
2024/01/29 09:11:14;;;;;;;8.32;6.43;;;;;;;;;;4983796;28;20062;-73
2024/01/29 09:13:40;;;;;;;8.25;6.05;;;;;;;;;;4982951;28;20061;-73
2024/01/29 09:16:06;;;;;;;8.93;7.15;;;;;;;;;;4975778;28;20046;-73
2024/01/29 09:18:32;;;;;;;11.07;6.22;;;;;;;;;;4981510;28;20054;-73
2024/01/29 09:20:58;;;;;;;10.20;6.40;;;;;;;;;;4983524;28;20046;-73
2024/01/29 09:23:24;;;;;;;11.15;7.30;;;;;;;;;;4982118;28;20048;-71
2024/01/29 09:25:51;;;;;;;10.85;6.50;;;;;;;;;;4984349;28;20068;-72
2024/01/29 09:28:17;;;;;;;8.25;6.43;;;;;;;;;;4982802;28;20086;-73
2024/01/29 09:30:43;;;;;;;11.13;6.20;;;;;;;;;;4982360;28;20048;-74
2024/01/29 09:33:09;;;;;;;9.75;6.60;;;;;;;;;;4982238;28;20046;-74
2024/01/29 09:35:35;;;;;;;11.85;7.07;;;;;;;;;;4975485;28;20053;-73
2024/01/29 09:38:01;;;;;;;10.68;7.32;;;7.60;99.90;;;;;;4981772;28;20404;-73
2024/01/29 09:40:27;;;;;;;10.05;6.90;;;;;;;;;;4982902;28;20049;-74
2024/01/29 09:42:54;;;;;;;11.95;7.43;;;7.90;99.90;;;;;;4981450;28;20050;-73
2024/01/29 09:45:23;;;;;;;11.75;6.82;;;7.80;99.90;;;;;;4982934;28;20205;-73
2024/01/29 09:47:51;;;;;;;13.77;7.72;;;7.70;99.90;;;;;;4981790;28;20141;-74
2024/01/29 09:50:18;;;;;;;12.73;6.85;;;;;;;;;;4978103;28;20049;-74
2024/01/29 09:52:45;;;;;;;11.27;7.40;;;8.00;99.90;;;;;;4982817;28;20081;-74
2024/01/29 09:55:11;;;;;;;11.40;7.43;;;;;;;;;;4983001;28;20155;-73
2024/01/29 09:57:38;;;;;;;9.60;7.53;;;8.30;99.90;;;;;;4982933;28;20049;-74
2024/01/29 10:00:04;;;;;;;12.60;7.47;;;8.50;99.90;;;;;;4983271;28;20424;-73
2024/01/29 10:02:34;;;;;;;13.45;7.95;;;8.40;99.90;;;;;;4983864;28;20121;-72
2024/01/29 10:05:00;;;;;;;12.70;7.03;;;;;;;;;;4982747;28;20042;-73
2024/01/29 10:07:26;;;;;;;10.00;6.70;;;;;;;;;;4982959;28;20050;-73
2024/01/29 10:09:52;;;;;;;13.27;8.10;;;;;;;;;;4981684;28;20124;-74
2024/01/29 10:12:22;;;;;;;11.52;6.60;;;9.50;99.90;;;;;;4982724;28;20046;-74
2024/01/29 10:14:48;;;;;;;13.10;7.93;;;9.80;99.90;;;;;;4983093;28;20759;-74
2024/01/29 10:17:14;;;;;;;12.73;7.72;;;;;;;;;;4983073;28;20077;-74
2024/01/29 10:19:43;;;;;;;11.88;7.70;;;;;;;;;;4981771;28;20081;-73
2024/01/29 10:22:12;;;;;;;16.60;8.10;;;9.80;99.90;;;;;;4984057;28;20054;-74
2024/01/29 10:24:38;;;;;;;11.50;7.95;;;9.80;99.90;;;;;;4980753;28;20500;-74
2024/01/29 10:27:08;;;;;;;12.45;7.53;;;9.70;99.90;;;;;;4984048;28;20049;-74
2024/01/29 10:29:49;;;;;;;9.32;7.05;;;10.10;99.90;;;;;;4981778;28;20803;-74
2024/01/29 10:32:15;;;;;;;13.85;8.60;;;;;;;;;;4984971;28;20511;-74
2024/01/29 10:34:41;;;;;;;10.63;7.55;;;;;;;;;;4983160;28;20496;-73
2024/01/29 10:37:07;;;;;;;10.63;7.50;;;;;;;;;;4983483;28;20453;-73
2024/01/29 10:39:36;;;;;;;11.70;7.95;;;10.40;99.90;;;;;;4983049;28;20038;-74
2024/01/29 10:42:02;;;;;;;14.45;7.50;;;;;;;;;;4982958;28;20057;-72
2024/01/29 10:44:32;;;;;;;14.75;8.48;;;10.40;99.90;;;;;;4983180;28;20579;-74
2024/01/29 10:46:59;;;;;;;13.02;7.47;;;10.30;99.90;;;;;;4997113;28;20146;-74
2024/01/29 10:49:28;;;;;;;12.77;7.75;;;10.60;99.90;;;;;;4982347;28;20042;-74
2024/01/29 10:51:55;;;;;;;11.80;8.15;;;10.30;99.90;;;;;;4978375;28;20081;-73
2024/01/29 10:54:22;;;;;;;13.30;8.05;;;10.00;99.90;;;;;;4982585;28;20129;-74
2024/01/29 10:56:50;;;;;;;14.32;9.25;;;9.80;99.90;;;;;;4983575;28;20185;-73
2024/01/29 10:59:18;;;;;;;13.05;8.57;;;;;;;;;;4983670;28;20492;-73
2024/01/29 11:01:45;;;;;;;10.65;8.43;;;9.40;99.90;;;;;;4994769;28;20125;-74
2024/01/29 11:04:12;;;;;;;14.95;8.45;;;9.20;99.90;;;;;;4981043;28;20419;-73
2024/01/29 11:06:58;;;;;;;16.38;9.20;;;9.10;99.90;;;;;;4981953;28;20061;-72
2024/01/29 11:09:27;;;;;;;13.77;9.07;;;9.00;99.90;;;;;;4981445;28;20050;-73
2024/01/29 11:11:54;;;;;;;14.43;8.45;;;8.90;99.90;;;;;;4973509;28;20055;-72
2024/01/29 11:14:21;;;;;;;13.07;9.25;;;8.70;99.90;;;;;;4983222;28;20047;-74
2024/01/29 11:16:47;;;;;;;13.38;8.70;;;9.70;99.90;;;;;;4984760;28;20113;-74
2024/01/29 11:19:13;;;;;;;14.98;9.32;;;8.40;99.90;;;;;;4982529;28;20038;-72
2024/01/29 11:21:52;;;;;;;15.38;8.65;;;;;;;;;;4982535;28;20070;-74
2024/01/29 11:24:21;;;;;;;14.57;8.93;;;8.40;99.90;;;;;;4982640;28;20060;-74
2024/01/29 11:26:47;;;;;;;13.40;8.80;;;;;;;;;;4975335;28;20082;-73
2024/01/29 11:29:18;;;;;;;12.63;9.18;;;8.30;99.90;;;;;;4989712;28;20120;-74
2024/01/29 11:31:51;;;;;;;18.73;9.40;;;;;;;;;;4996961;28;20196;-72
2024/01/29 11:34:26;;;;;;;14.85;9.05;;;8.20;99.90;;;;;;4982899;28;20089;-74
2024/01/29 11:36:53;;;;;;;13.25;9.30;;;8.30;99.90;;;;;;4980706;28;20093;-74
2024/01/29 11:39:22;;;;;;;14.13;10.23;;;;;;;;;;4972792;28;20424;-74
2024/01/29 11:41:49;;;;;;;13.70;9.18;;;8.50;99.90;;;;;;4979381;28;20058;-74
2024/01/29 11:44:18;;;;;;;16.20;10.32;;;8.40;99.90;;;;;;4980788;28;20132;-74
2024/01/29 11:46:44;;;;;;;13.90;9.68;;;;;;;;;;4980396;28;20042;-74
2024/01/29 11:49:10;;;;;;;16.77;10.00;;;;;;;;;;4981807;28;20489;-74
2024/01/29 11:51:37;;;;;;;17.08;9.93;;;8.40;99.90;;;;;;4981918;28;20050;-74
2024/01/29 11:54:04;;;;;;;18.17;11.43;;;;;;;;;;4982400;28;20046;-73
2024/01/29 11:56:30;;;;;;;19.27;10.77;;;;;;;;;;4985797;28;20050;-74
2024/01/29 11:59:03;;;;;;;19.52;10.48;;;8.50;99.90;;;;;;4985037;28;20047;-74
2024/01/29 12:01:31;;;;;;;21.83;10.55;;;;;;;;;;4985494;28;20054;-73
2024/01/29 12:03:57;;;;;;;25.02;12.65;;;;;;;;;;4984315;28;20085;-73
2024/01/29 12:06:23;;;;;;;24.33;11.98;;;8.30;99.90;;;;;;4979022;28;20242;-73
2024/01/29 12:08:50;;;;;;;20.30;10.77;;;;;;;;;;4975213;28;20642;-72
2024/01/29 12:11:16;;;;;;;19.45;10.70;;;;;;;;;;4995333;28;20053;-73
2024/01/29 12:13:42;;;;;;;18.00;10.95;;;;;;;;;;4987033;28;20039;-74
2024/01/29 12:16:09;;;;;;;19.23;10.65;;;8.40;99.90;;;;;;4987884;28;20512;-73
2024/01/29 12:18:38;;;;;;;17.00;10.88;;;;;;;;;;4987559;28;20097;-73
2024/01/29 12:21:05;;;;;;;17.48;10.55;;;;;;;;;;4986160;28;20085;-74
2024/01/29 12:23:30;;;;;;;19.25;10.20;;;8.40;99.90;;;;;;4988030;28;20049;-74
2024/01/29 12:25:57;;;;;;;20.67;10.75;;;;;;;;;;4984984;28;20054;-74
2024/01/29 12:28:25;;;;;;;15.98;10.55;;;;;;;;;;4979582;28;20062;-73
2024/01/29 12:30:58;;;;;;;17.27;10.50;;;8.30;99.90;;;;;;4985060;28;20054;-74
2024/01/29 12:33:28;;;;;;;14.48;10.63;;;8.60;99.90;;;;;;4997043;28;20061;-75
2024/01/29 12:35:55;;;;;;;16.52;10.43;;;;;;;;;;4982850;28;20057;-72
2024/01/29 12:38:23;;;;;;;17.77;9.23;;;8.40;99.90;;;;;;4984416;28;20050;-74
2024/01/29 12:40:55;;;;;;;17.45;10.15;;;8.60;99.90;;;;;;4978762;28;20046;-72
2024/01/29 12:43:30;;;;;;;18.05;11.52;;;;;;;;;;4979692;28;20153;-73
2024/01/29 12:46:13;;;;;;;18.00;10.45;;;8.80;99.90;;;;;;4980064;28;20057;-74
2024/01/29 12:48:40;;;;;;;16.42;9.80;;;;;;;;;;4987050;28;20042;-73
2024/01/29 12:51:06;;;;;;;14.27;10.15;;;;;;;;;;4982995;28;20050;-74
2024/01/29 12:53:32;;;;;;;18.88;11.05;;;8.40;99.90;;;;;;4981515;28;20042;-73
2024/01/29 12:55:58;;;;;;;17.80;10.68;;;8.60;99.90;;;;;;4986863;28;20492;-74
2024/01/29 12:58:24;;;;;;;15.68;9.65;;;;;;;;;;4984153;28;20587;-73
2024/01/29 13:00:51;;;;;;;18.05;11.43;;;;;;;;;;4983369;28;20042;-74
2024/01/29 13:03:17;;;;;;;19.70;10.80;;;8.60;99.90;;;;;;4981489;28;20050;-74
2024/01/29 13:05:43;;;;;;;20.90;11.43;;;;;;;;;;4998663;28;20080;-74
2024/01/29 13:08:09;;;;;;;18.63;12.07;;;;;;;;;;4981001;28;20174;-71
2024/01/29 13:10:37;;;;;;;19.02;11.45;;;;;;;;;;4984538;28;20416;-72
2024/01/29 13:13:04;;;;;;;19.13;12.57;;;8.50;99.90;;;;;;4991962;28;20627;-74
2024/01/29 13:15:31;;;;;;;23.67;13.45;;;;;;;;;;4983566;28;20483;-72
2024/01/29 13:17:57;;;;;;;23.33;12.13;;;8.80;99.90;;;;;;4984054;28;20050;-73
2024/01/29 13:20:22;;;;;;;18.13;12.63;;;8.70;99.90;;;;;;4987947;28;20131;-73
2024/01/29 13:22:49;;;;;;;18.75;12.18;;;;;;;;;;4985669;28;20042;-73
2024/01/29 13:25:15;;;;;;;16.42;11.38;;;;;;;;;;4986494;28;20045;-73
2024/01/29 13:27:41;;;;;;;18.50;11.15;;;;;;;;;;4983492;28;20050;-71
2024/01/29 13:30:07;;;;;;;19.58;11.60;;;8.80;99.90;;;;;;4982847;28;20495;-74
2024/01/29 13:32:33;;;;;;;19.70;11.60;;;8.80;99.90;;;;;;4984323;28;20046;-73
2024/01/29 13:34:59;;;;;;;17.38;11.38;;;;;;;;;;4977969;28;20042;-74
2024/01/29 13:37:25;;;;;;;17.08;11.10;;;;;;;;;;4983788;28;20050;-73
2024/01/29 13:39:51;;;;;;;19.67;12.18;;;;;;;;;;4980826;28;20034;-72
2024/01/29 13:42:17;;;;;;;18.15;12.02;;;;;;;;;;4986432;28;20058;-74
2024/01/29 13:44:43;;;;;;;17.50;12.35;;;;;;;;;;4980244;28;20055;-74
2024/01/29 13:47:09;;;;;;;16.27;11.27;;;;;;;;;;4979811;28;20538;-73
2024/01/29 13:49:35;;;;;;;20.02;11.40;;;;;;;;;;4981040;28;20047;-73
2024/01/29 13:52:02;;;;;;;17.92;11.93;;;;;;;;;;4979324;28;20046;-73
2024/01/29 13:54:28;;;;;;;18.80;11.13;;;;;;;;;;4981050;28;20096;-73
2024/01/29 13:56:54;;;;;;;17.88;11.48;;;;;;;;;;4984350;28;20060;-73
2024/01/29 13:59:20;;;;;;;17.70;11.32;;;;;;;;;;4981857;28;20606;-73
2024/01/29 14:01:46;;;;;;;17.48;11.60;;;;;;;;;;4980482;28;20141;-73
2024/01/29 14:04:12;;;;;;;14.80;10.38;;;;;;;;;;4979067;28;20061;-72
2024/01/29 14:06:38;;;;;;;16.25;11.10;;;;;;;;;;4979640;28;20077;-71